sensor_id;sensor_type;location;lat;lon;timestamp;temperature;humidity
22112;DHT22;11222;50.872;4.312;2023-03-12T00:01:50;7.50;99.90
22112;DHT22;11222;50.872;4.312;2023-03-12T00:04:16;7.50;99.90
22112;DHT22;11222;50.872;4.312;2023-03-12T00:06:41;7.50;99.90
22112;DHT22;11222;50.872;4.312;2023-03-12T00:09:07;7.50;99.90
22112;DHT22;11222;50.872;4.312;2023-03-12T00:11:34;7.40;99.90
22112;DHT22;11222;50.872;4.312;2023-03-12T00:14:00;7.30;99.90
22112;DHT22;11222;50.872;4.312;2023-03-12T00:16:26;7.30;99.90
22112;DHT22;11222;50.872;4.312;2023-03-12T00:18:53;7.30;99.90
22112;DHT22;11222;50.872;4.312;2023-03-12T00:21:20;7.40;99.90
22112;DHT22;11222;50.872;4.312;2023-03-12T00:23:47;7.30;99.90
22112;DHT22;11222;50.872;4.312;2023-03-12T00:26:14;7.30;99.90
22112;DHT22;11222;50.872;4.312;2023-03-12T00:28:40;7.20;99.90
22112;DHT22;11222;50.872;4.312;2023-03-12T00:31:33;7.10;99.90
22112;DHT22;11222;50.872;4.312;2023-03-12T00:34:00;7.20;99.90
22112;DHT22;11222;50.872;4.312;2023-03-12T00:36:28;7.10;99.90
22112;DHT22;11222;50.872;4.312;2023-03-12T00:38:55;7.10;99.90
22112;DHT22;11222;50.872;4.312;2023-03-12T00:41:21;7.10;99.90
22112;DHT22;11222;50.872;4.312;2023-03-12T00:43:48;7.00;99.90
22112;DHT22;11222;50.872;4.312;2023-03-12T00:46:15;6.90;99.90
22112;DHT22;11222;50.872;4.312;2023-03-12T00:48:41;6.80;99.90
22112;DHT22;11222;50.872;4.312;2023-03-12T00:51:07;6.80;99.90
22112;DHT22;11222;50.872;4.312;2023-03-12T00:53:34;6.60;99.90
22112;DHT22;11222;50.872;4.312;2023-03-12T00:55:59;6.60;99.90
22112;DHT22;11222;50.872;4.312;2023-03-12T00:58:25;6.60;99.90
22112;DHT22;11222;50.872;4.312;2023-03-12T01:00:51;6.70;99.90
22112;DHT22;11222;50.872;4.312;2023-03-12T01:03:17;6.60;99.90
22112;DHT22;11222;50.872;4.312;2023-03-12T01:05:42;6.60;99.90
22112;DHT22;11222;50.872;4.312;2023-03-12T01:08:08;6.60;99.90
22112;DHT22;11222;50.872;4.312;2023-03-12T01:10:36;6.60;99.90
22112;DHT22;11222;50.872;4.312;2023-03-12T01:13:02;6.70;99.90
22112;DHT22;11222;50.872;4.312;2023-03-12T01:15:28;6.70;99.90
22112;DHT22;11222;50.872;4.312;2023-03-12T01:17:54;6.80;99.90
22112;DHT22;11222;50.872;4.312;2023-03-12T01:20:20;6.60;99.90
22112;DHT22;11222;50.872;4.312;2023-03-12T01:22:47;6.30;99.90
22112;DHT22;11222;50.872;4.312;2023-03-12T01:25:13;6.30;99.90
22112;DHT22;11222;50.872;4.312;2023-03-12T01:27:39;6.30;99.90
22112;DHT22;11222;50.872;4.312;2023-03-12T01:30:05;6.30;99.90
22112;DHT22;11222;50.872;4.312;2023-03-12T01:32:31;6.40;99.90
22112;DHT22;11222;50.872;4.312;2023-03-12T01:34:57;6.40;99.90
22112;DHT22;11222;50.872;4.312;2023-03-12T01:37:25;6.20;99.90
22112;DHT22;11222;50.872;4.312;2023-03-12T01:39:51;6.10;99.90
22112;DHT22;11222;50.872;4.312;2023-03-12T01:42:16;6.20;99.90
22112;DHT22;11222;50.872;4.312;2023-03-12T01:44:55;6.20;99.90
22112;DHT22;11222;50.872;4.312;2023-03-12T01:47:21;6.30;99.90
22112;DHT22;11222;50.872;4.312;2023-03-12T01:49:48;6.20;99.90
22112;DHT22;11222;50.872;4.312;2023-03-12T01:52:28;6.20;99.90
22112;DHT22;11222;50.872;4.312;2023-03-12T01:55:05;6.20;99.90
22112;DHT22;11222;50.872;4.312;2023-03-12T01:57:39;6.30;99.90
22112;DHT22;11222;50.872;4.312;2023-03-12T02:00:19;6.30;99.90
22112;DHT22;11222;50.872;4.312;2023-03-12T02:02:45;6.30;99.90
22112;DHT22;11222;50.872;4.312;2023-03-12T02:07:42;6.10;99.90
22112;DHT22;11222;50.872;4.312;2023-03-12T02:10:08;5.80;99.90
22112;DHT22;11222;50.872;4.312;2023-03-12T02:12:34;5.90;99.90
22112;DHT22;11222;50.872;4.312;2023-03-12T02:15:00;6.10;99.90
22112;DHT22;11222;50.872;4.312;2023-03-12T02:17:25;6.00;99.90
22112;DHT22;11222;50.872;4.312;2023-03-12T02:23:08;5.90;99.90
22112;DHT22;11222;50.872;4.312;2023-03-12T02:25:41;5.90;99.90
22112;DHT22;11222;50.872;4.312;2023-03-12T02:28:12;5.90;99.90
22112;DHT22;11222;50.872;4.312;2023-03-12T02:30:40;5.90;99.90
22112;DHT22;11222;50.872;4.312;2023-03-12T02:33:10;5.80;99.90
22112;DHT22;11222;50.872;4.312;2023-03-12T02:35:36;5.70;99.90
22112;DHT22;11222;50.872;4.312;2023-03-12T02:38:22;5.60;99.90
22112;DHT22;11222;50.872;4.312;2023-03-12T02:40:49;5.70;99.90
22112;DHT22;11222;50.872;4.312;2023-03-12T02:43:18;5.80;99.90
22112;DHT22;11222;50.872;4.312;2023-03-12T02:45:44;5.90;99.90
22112;DHT22;11222;50.872;4.312;2023-03-12T02:48:10;5.80;99.90
22112;DHT22;11222;50.872;4.312;2023-03-12T02:50:36;5.70;99.90
22112;DHT22;11222;50.872;4.312;2023-03-12T02:53:02;5.80;99.90
22112;DHT22;11222;50.872;4.312;2023-03-12T02:55:27;5.70;99.90
22112;DHT22;11222;50.872;4.312;2023-03-12T02:57:53;5.80;99.90
22112;DHT22;11222;50.872;4.312;2023-03-12T03:00:19;5.90;99.90
22112;DHT22;11222;50.872;4.312;2023-03-12T03:02:45;5.90;99.90
22112;DHT22;11222;50.872;4.312;2023-03-12T03:05:11;6.00;99.90
22112;DHT22;11222;50.872;4.312;2023-03-12T03:07:37;5.90;99.90
22112;DHT22;11222;50.872;4.312;2023-03-12T03:10:04;5.90;99.90
22112;DHT22;11222;50.872;4.312;2023-03-12T03:12:31;5.90;99.90
22112;DHT22;11222;50.872;4.312;2023-03-12T03:14:57;5.90;99.90
22112;DHT22;11222;50.872;4.312;2023-03-12T03:17:23;5.90;99.90
22112;DHT22;11222;50.872;4.312;2023-03-12T03:19:49;5.80;99.90
22112;DHT22;11222;50.872;4.312;2023-03-12T03:22:15;5.90;99.90
22112;DHT22;11222;50.872;4.312;2023-03-12T03:24:41;6.00;99.90
22112;DHT22;11222;50.872;4.312;2023-03-12T03:27:07;6.00;99.90
22112;DHT22;11222;50.872;4.312;2023-03-12T03:29:33;6.00;99.90
22112;DHT22;11222;50.872;4.312;2023-03-12T03:31:59;6.00;99.90
22112;DHT22;11222;50.872;4.312;2023-03-12T03:34:25;6.10;99.90
22112;DHT22;11222;50.872;4.312;2023-03-12T03:36:50;6.10;99.90
22112;DHT22;11222;50.872;4.312;2023-03-12T03:39:16;6.20;99.90
22112;DHT22;11222;50.872;4.312;2023-03-12T03:41:42;6.20;99.90
22112;DHT22;11222;50.872;4.312;2023-03-12T03:44:08;6.20;99.90
22112;DHT22;11222;50.872;4.312;2023-03-12T03:46:34;6.20;99.90
22112;DHT22;11222;50.872;4.312;2023-03-12T03:49:00;6.20;99.90
22112;DHT22;11222;50.872;4.312;2023-03-12T03:51:26;6.20;99.90
22112;DHT22;11222;50.872;4.312;2023-03-12T03:53:52;6.20;99.90
22112;DHT22;11222;50.872;4.312;2023-03-12T03:56:18;6.20;99.90
22112;DHT22;11222;50.872;4.312;2023-03-12T03:58:44;6.30;99.90
22112;DHT22;11222;50.872;4.312;2023-03-12T04:01:12;6.30;99.90
22112;DHT22;11222;50.872;4.312;2023-03-12T04:03:38;6.40;99.90
22112;DHT22;11222;50.872;4.312;2023-03-12T04:06:05;6.50;99.90
22112;DHT22;11222;50.872;4.312;2023-03-12T04:08:32;6.60;99.90
22112;DHT22;11222;50.872;4.312;2023-03-12T04:11:06;6.60;99.90
22112;DHT22;11222;50.872;4.312;2023-03-12T04:13:32;6.50;99.90
22112;DHT22;11222;50.872;4.312;2023-03-12T04:15:57;6.50;99.90
22112;DHT22;11222;50.872;4.312;2023-03-12T04:18:23;6.50;99.90
22112;DHT22;11222;50.872;4.312;2023-03-12T04:20:49;6.50;99.90
22112;DHT22;11222;50.872;4.312;2023-03-12T04:23:14;6.30;99.90
22112;DHT22;11222;50.872;4.312;2023-03-12T04:25:40;6.40;99.90
22112;DHT22;11222;50.872;4.312;2023-03-12T04:28:05;6.20;99.90
22112;DHT22;11222;50.872;4.312;2023-03-12T04:30:31;6.10;99.90
22112;DHT22;11222;50.872;4.312;2023-03-12T04:32:57;6.20;99.90
22112;DHT22;11222;50.872;4.312;2023-03-12T04:35:23;6.20;99.90
22112;DHT22;11222;50.872;4.312;2023-03-12T04:37:50;6.20;99.90
22112;DHT22;11222;50.872;4.312;2023-03-12T04:40:15;6.30;99.90
22112;DHT22;11222;50.872;4.312;2023-03-12T04:42:43;6.30;99.90
22112;DHT22;11222;50.872;4.312;2023-03-12T04:45:10;6.30;99.90
22112;DHT22;11222;50.872;4.312;2023-03-12T04:47:35;6.40;99.90
22112;DHT22;11222;50.872;4.312;2023-03-12T04:50:01;6.40;99.90
22112;DHT22;11222;50.872;4.312;2023-03-12T04:52:27;6.30;99.90
22112;DHT22;11222;50.872;4.312;2023-03-12T04:54:53;6.30;99.90
22112;DHT22;11222;50.872;4.312;2023-03-12T04:57:19;6.30;99.90
22112;DHT22;11222;50.872;4.312;2023-03-12T04:59:45;6.30;99.90
22112;DHT22;11222;50.872;4.312;2023-03-12T05:02:11;6.30;99.90
22112;DHT22;11222;50.872;4.312;2023-03-12T05:04:37;6.30;99.90
22112;DHT22;11222;50.872;4.312;2023-03-12T05:07:02;6.30;99.90
22112;DHT22;11222;50.872;4.312;2023-03-12T05:09:28;6.20;99.90
22112;DHT22;11222;50.872;4.312;2023-03-12T05:11:54;6.30;99.90
22112;DHT22;11222;50.872;4.312;2023-03-12T05:14:19;6.20;99.90
22112;DHT22;11222;50.872;4.312;2023-03-12T05:16:45;6.20;99.90
22112;DHT22;11222;50.872;4.312;2023-03-12T05:19:11;6.20;99.90
22112;DHT22;11222;50.872;4.312;2023-03-12T05:21:38;6.20;99.90
22112;DHT22;11222;50.872;4.312;2023-03-12T05:24:05;6.30;99.90
22112;DHT22;11222;50.872;4.312;2023-03-12T05:26:32;6.40;99.90
22112;DHT22;11222;50.872;4.312;2023-03-12T05:28:59;6.40;99.90
22112;DHT22;11222;50.872;4.312;2023-03-12T05:31:26;6.20;99.90
22112;DHT22;11222;50.872;4.312;2023-03-12T05:33:52;6.30;99.90
22112;DHT22;11222;50.872;4.312;2023-03-12T05:36:18;6.20;99.90
22112;DHT22;11222;50.872;4.312;2023-03-12T05:38:44;6.20;99.90
22112;DHT22;11222;50.872;4.312;2023-03-12T05:41:21;6.30;99.90
22112;DHT22;11222;50.872;4.312;2023-03-12T05:43:47;6.30;99.90
22112;DHT22;11222;50.872;4.312;2023-03-12T05:46:13;6.40;99.90
22112;DHT22;11222;50.872;4.312;2023-03-12T05:48:40;6.40;99.90
22112;DHT22;11222;50.872;4.312;2023-03-12T05:51:06;6.40;99.90
22112;DHT22;11222;50.872;4.312;2023-03-12T05:53:31;6.40;99.90
22112;DHT22;11222;50.872;4.312;2023-03-12T05:56:05;6.40;99.90
22112;DHT22;11222;50.872;4.312;2023-03-12T05:58:32;6.40;99.90
22112;DHT22;11222;50.872;4.312;2023-03-12T06:00:58;6.40;99.90
22112;DHT22;11222;50.872;4.312;2023-03-12T06:03:23;6.50;99.90
22112;DHT22;11222;50.872;4.312;2023-03-12T06:05:49;6.50;99.90
22112;DHT22;11222;50.872;4.312;2023-03-12T06:08:20;6.50;99.90
22112;DHT22;11222;50.872;4.312;2023-03-12T06:10:46;6.40;99.90
22112;DHT22;11222;50.872;4.312;2023-03-12T06:13:11;6.50;99.90
22112;DHT22;11222;50.872;4.312;2023-03-12T06:15:37;6.50;99.90
22112;DHT22;11222;50.872;4.312;2023-03-12T06:18:03;6.50;99.90
22112;DHT22;11222;50.872;4.312;2023-03-12T06:20:29;6.60;99.90
22112;DHT22;11222;50.872;4.312;2023-03-12T06:22:54;6.60;99.90
22112;DHT22;11222;50.872;4.312;2023-03-12T06:25:20;6.60;99.90
22112;DHT22;11222;50.872;4.312;2023-03-12T06:27:46;6.70;99.90
22112;DHT22;11222;50.872;4.312;2023-03-12T06:30:12;6.70;99.90
22112;DHT22;11222;50.872;4.312;2023-03-12T06:32:38;6.70;99.90
22112;DHT22;11222;50.872;4.312;2023-03-12T06:35:04;6.80;99.90
22112;DHT22;11222;50.872;4.312;2023-03-12T06:37:30;6.90;99.90
22112;DHT22;11222;50.872;4.312;2023-03-12T06:39:56;7.00;99.90
22112;DHT22;11222;50.872;4.312;2023-03-12T06:42:22;7.00;99.90
22112;DHT22;11222;50.872;4.312;2023-03-12T06:44:48;7.10;99.90
22112;DHT22;11222;50.872;4.312;2023-03-12T06:47:14;7.10;99.90
22112;DHT22;11222;50.872;4.312;2023-03-12T06:49:40;7.10;99.90
22112;DHT22;11222;50.872;4.312;2023-03-12T06:52:06;7.10;99.90
22112;DHT22;11222;50.872;4.312;2023-03-12T06:54:31;7.20;99.90
22112;DHT22;11222;50.872;4.312;2023-03-12T06:56:57;7.30;99.90
22112;DHT22;11222;50.872;4.312;2023-03-12T06:59:25;7.30;99.90
22112;DHT22;11222;50.872;4.312;2023-03-12T07:01:50;7.30;99.90
22112;DHT22;11222;50.872;4.312;2023-03-12T07:04:16;7.30;99.90
22112;DHT22;11222;50.872;4.312;2023-03-12T07:06:42;7.40;99.90
22112;DHT22;11222;50.872;4.312;2023-03-12T07:09:08;7.50;99.90
22112;DHT22;11222;50.872;4.312;2023-03-12T07:11:34;7.60;99.90
22112;DHT22;11222;50.872;4.312;2023-03-12T07:14:00;7.60;99.90
22112;DHT22;11222;50.872;4.312;2023-03-12T07:16:26;7.60;99.90
22112;DHT22;11222;50.872;4.312;2023-03-12T07:18:52;7.70;99.90
22112;DHT22;11222;50.872;4.312;2023-03-12T07:21:18;7.70;99.90
22112;DHT22;11222;50.872;4.312;2023-03-12T07:23:49;7.70;99.90
22112;DHT22;11222;50.872;4.312;2023-03-12T07:26:15;7.70;99.90
22112;DHT22;11222;50.872;4.312;2023-03-12T07:28:41;7.80;99.90
22112;DHT22;11222;50.872;4.312;2023-03-12T07:31:07;7.80;99.90
22112;DHT22;11222;50.872;4.312;2023-03-12T07:33:33;7.90;99.90
22112;DHT22;11222;50.872;4.312;2023-03-12T07:35:59;8.00;99.90
22112;DHT22;11222;50.872;4.312;2023-03-12T07:38:25;8.00;99.90
22112;DHT22;11222;50.872;4.312;2023-03-12T07:40:52;8.10;99.90
22112;DHT22;11222;50.872;4.312;2023-03-12T07:43:18;8.10;99.90
22112;DHT22;11222;50.872;4.312;2023-03-12T07:45:44;8.10;99.90
22112;DHT22;11222;50.872;4.312;2023-03-12T07:48:10;8.20;99.90
22112;DHT22;11222;50.872;4.312;2023-03-12T07:50:36;8.20;99.90
22112;DHT22;11222;50.872;4.312;2023-03-12T07:53:03;8.20;99.90
22112;DHT22;11222;50.872;4.312;2023-03-12T07:55:29;8.30;99.90
22112;DHT22;11222;50.872;4.312;2023-03-12T07:57:55;8.40;99.90
22112;DHT22;11222;50.872;4.312;2023-03-12T08:00:24;8.40;99.90
22112;DHT22;11222;50.872;4.312;2023-03-12T08:02:49;8.40;99.90
22112;DHT22;11222;50.872;4.312;2023-03-12T08:05:15;8.50;99.90
22112;DHT22;11222;50.872;4.312;2023-03-12T08:07:41;8.60;99.90
22112;DHT22;11222;50.872;4.312;2023-03-12T08:10:07;8.60;99.90
22112;DHT22;11222;50.872;4.312;2023-03-12T08:12:33;8.60;99.90
22112;DHT22;11222;50.872;4.312;2023-03-12T08:14:59;8.70;99.90
22112;DHT22;11222;50.872;4.312;2023-03-12T08:17:25;8.70;99.90
22112;DHT22;11222;50.872;4.312;2023-03-12T08:19:51;8.80;99.90
22112;DHT22;11222;50.872;4.312;2023-03-12T08:22:17;8.80;99.90
22112;DHT22;11222;50.872;4.312;2023-03-12T08:24:42;8.90;99.90
22112;DHT22;11222;50.872;4.312;2023-03-12T08:27:08;9.00;99.90
22112;DHT22;11222;50.872;4.312;2023-03-12T08:29:36;9.10;99.90
22112;DHT22;11222;50.872;4.312;2023-03-12T08:32:02;9.20;99.90
22112;DHT22;11222;50.872;4.312;2023-03-12T08:34:28;9.40;99.90
22112;DHT22;11222;50.872;4.312;2023-03-12T08:36:54;9.40;99.90
22112;DHT22;11222;50.872;4.312;2023-03-12T08:39:21;9.60;99.90
22112;DHT22;11222;50.872;4.312;2023-03-12T08:41:46;9.70;99.90
22112;DHT22;11222;50.872;4.312;2023-03-12T08:44:12;9.80;99.90
22112;DHT22;11222;50.872;4.312;2023-03-12T08:46:37;9.90;99.90
22112;DHT22;11222;50.872;4.312;2023-03-12T08:49:03;9.90;99.90
22112;DHT22;11222;50.872;4.312;2023-03-12T08:51:29;9.80;99.90
22112;DHT22;11222;50.872;4.312;2023-03-12T08:53:55;9.90;99.90
22112;DHT22;11222;50.872;4.312;2023-03-12T08:56:20;10.10;99.90
22112;DHT22;11222;50.872;4.312;2023-03-12T08:58:46;10.30;99.90
22112;DHT22;11222;50.872;4.312;2023-03-12T09:01:12;10.40;99.90
22112;DHT22;11222;50.872;4.312;2023-03-12T09:03:38;10.50;99.90
22112;DHT22;11222;50.872;4.312;2023-03-12T09:06:10;10.60;99.90
22112;DHT22;11222;50.872;4.312;2023-03-12T09:08:43;10.70;99.90
22112;DHT22;11222;50.872;4.312;2023-03-12T09:11:10;10.80;99.90
22112;DHT22;11222;50.872;4.312;2023-03-12T09:13:37;10.80;99.90
22112;DHT22;11222;50.872;4.312;2023-03-12T09:16:03;10.80;99.90
22112;DHT22;11222;50.872;4.312;2023-03-12T09:18:29;10.80;99.90
22112;DHT22;11222;50.872;4.312;2023-03-12T09:20:56;10.90;99.90
22112;DHT22;11222;50.872;4.312;2023-03-12T09:23:22;11.00;99.90
22112;DHT22;11222;50.872;4.312;2023-03-12T09:25:48;11.10;99.90
22112;DHT22;11222;50.872;4.312;2023-03-12T09:28:14;11.10;99.90
22112;DHT22;11222;50.872;4.312;2023-03-12T09:30:41;11.20;99.90
22112;DHT22;11222;50.872;4.312;2023-03-12T09:33:06;11.30;99.90
22112;DHT22;11222;50.872;4.312;2023-03-12T09:35:32;11.40;99.90
22112;DHT22;11222;50.872;4.312;2023-03-12T09:37:59;11.40;99.90
22112;DHT22;11222;50.872;4.312;2023-03-12T09:40:28;11.60;99.90
22112;DHT22;11222;50.872;4.312;2023-03-12T09:43:01;11.60;99.90
22112;DHT22;11222;50.872;4.312;2023-03-12T09:45:30;11.70;99.90
22112;DHT22;11222;50.872;4.312;2023-03-12T09:48:00;11.80;99.90
22112;DHT22;11222;50.872;4.312;2023-03-12T09:50:32;12.10;99.90
22112;DHT22;11222;50.872;4.312;2023-03-12T09:55:57;11.90;99.90
22112;DHT22;11222;50.872;4.312;2023-03-12T09:58:36;12.20;99.90
22112;DHT22;11222;50.872;4.312;2023-03-12T10:06:44;11.70;99.90
22112;DHT22;11222;50.872;4.312;2023-03-12T10:15:35;11.50;99.90
22112;DHT22;11222;50.872;4.312;2023-03-12T10:18:32;11.50;99.90
22112;DHT22;11222;50.872;4.312;2023-03-12T10:26:43;12.00;99.90
22112;DHT22;11222;50.872;4.312;2023-03-12T10:29:16;12.10;99.90
22112;DHT22;11222;50.872;4.312;2023-03-12T10:34:20;12.30;99.90
22112;DHT22;11222;50.872;4.312;2023-03-12T10:36:47;12.40;99.90
22112;DHT22;11222;50.872;4.312;2023-03-12T10:39:18;12.50;99.90
22112;DHT22;11222;50.872;4.312;2023-03-12T10:41:46;12.50;99.90
22112;DHT22;11222;50.872;4.312;2023-03-12T10:44:23;12.40;99.90
22112;DHT22;11222;50.872;4.312;2023-03-12T10:54:29;12.50;99.90
22112;DHT22;11222;50.872;4.312;2023-03-12T10:56:55;12.50;99.90
22112;DHT22;11222;50.872;4.312;2023-03-12T10:59:24;12.60;99.90
22112;DHT22;11222;50.872;4.312;2023-03-12T11:01:51;12.60;99.90
22112;DHT22;11222;50.872;4.312;2023-03-12T11:04:18;12.80;99.90
22112;DHT22;11222;50.872;4.312;2023-03-12T11:09:33;13.00;99.90
22112;DHT22;11222;50.872;4.312;2023-03-12T11:11:59;13.10;99.90
22112;DHT22;11222;50.872;4.312;2023-03-12T11:14:27;13.00;99.90
22112;DHT22;11222;50.872;4.312;2023-03-12T11:16:54;13.30;99.90
22112;DHT22;11222;50.872;4.312;2023-03-12T11:19:32;13.20;99.90
22112;DHT22;11222;50.872;4.312;2023-03-12T11:22:06;12.80;99.90
22112;DHT22;11222;50.872;4.312;2023-03-12T11:24:33;12.70;99.90
22112;DHT22;11222;50.872;4.312;2023-03-12T11:27:04;12.60;99.90
22112;DHT22;11222;50.872;4.312;2023-03-12T11:29:37;12.50;99.90
22112;DHT22;11222;50.872;4.312;2023-03-12T11:32:17;12.50;99.90
22112;DHT22;11222;50.872;4.312;2023-03-12T11:34:45;12.50;99.90
22112;DHT22;11222;50.872;4.312;2023-03-12T11:37:32;12.60;99.90
22112;DHT22;11222;50.872;4.312;2023-03-12T11:40:19;12.60;99.90
22112;DHT22;11222;50.872;4.312;2023-03-12T11:45:40;13.00;99.90
22112;DHT22;11222;50.872;4.312;2023-03-12T11:51:06;13.00;99.90
22112;DHT22;11222;50.872;4.312;2023-03-12T11:56:38;13.20;99.90
22112;DHT22;11222;50.872;4.312;2023-03-12T12:24:41;14.20;99.90
22112;DHT22;11222;50.872;4.312;2023-03-12T12:27:18;14.20;99.90
22112;DHT22;11222;50.872;4.312;2023-03-12T12:35:22;13.50;99.90
22112;DHT22;11222;50.872;4.312;2023-03-12T12:37:56;13.40;99.90
22112;DHT22;11222;50.872;4.312;2023-03-12T12:40:31;13.20;99.90
22112;DHT22;11222;50.872;4.312;2023-03-12T12:45:51;13.10;99.90
22112;DHT22;11222;50.872;4.312;2023-03-12T12:48:25;13.00;99.90
22112;DHT22;11222;50.872;4.312;2023-03-12T12:50:53;13.10;99.90
22112;DHT22;11222;50.872;4.312;2023-03-12T12:53:22;13.20;99.90
22112;DHT22;11222;50.872;4.312;2023-03-12T12:59:20;12.90;99.90
22112;DHT22;11222;50.872;4.312;2023-03-12T13:01:54;12.90;99.90
22112;DHT22;11222;50.872;4.312;2023-03-12T13:04:29;13.10;99.90
22112;DHT22;11222;50.872;4.312;2023-03-12T13:09:46;13.10;99.90
22112;DHT22;11222;50.872;4.312;2023-03-12T13:12:26;12.90;99.90
22112;DHT22;11222;50.872;4.312;2023-03-12T13:14:56;12.70;99.90
22112;DHT22;11222;50.872;4.312;2023-03-12T13:20:18;12.80;99.90
22112;DHT22;11222;50.872;4.312;2023-03-12T13:25:53;13.10;99.90
22112;DHT22;11222;50.872;4.312;2023-03-12T13:33:45;12.90;99.90
22112;DHT22;11222;50.872;4.312;2023-03-12T13:39:17;12.90;99.90
22112;DHT22;11222;50.872;4.312;2023-03-12T13:41:48;13.10;99.90
22112;DHT22;11222;50.872;4.312;2023-03-12T13:50:07;13.00;99.90
22112;DHT22;11222;50.872;4.312;2023-03-12T13:52:45;13.20;99.90
22112;DHT22;11222;50.872;4.312;2023-03-12T13:55:26;13.00;99.90
22112;DHT22;11222;50.872;4.312;2023-03-12T13:57:56;13.00;99.90
22112;DHT22;11222;50.872;4.312;2023-03-12T14:00:30;12.90;99.90
22112;DHT22;11222;50.872;4.312;2023-03-12T14:02:58;13.00;99.90
22112;DHT22;11222;50.872;4.312;2023-03-12T14:05:26;13.00;99.90
22112;DHT22;11222;50.872;4.312;2023-03-12T14:14:07;13.20;99.90
22112;DHT22;11222;50.872;4.312;2023-03-12T14:16:43;13.00;99.90
22112;DHT22;11222;50.872;4.312;2023-03-12T14:19:15;12.80;99.90
22112;DHT22;11222;50.872;4.312;2023-03-12T14:21:47;12.80;99.90
22112;DHT22;11222;50.872;4.312;2023-03-12T14:24:40;12.90;99.90
22112;DHT22;11222;50.872;4.312;2023-03-12T14:27:18;12.90;99.90
22112;DHT22;11222;50.872;4.312;2023-03-12T14:30:16;13.10;99.90
22112;DHT22;11222;50.872;4.312;2023-03-12T14:32:45;12.90;99.90
22112;DHT22;11222;50.872;4.312;2023-03-12T14:35:28;13.00;99.90
22112;DHT22;11222;50.872;4.312;2023-03-12T14:38:10;13.10;99.90
22112;DHT22;11222;50.872;4.312;2023-03-12T14:41:02;13.20;99.90
22112;DHT22;11222;50.872;4.312;2023-03-12T14:43:31;13.20;99.90
22112;DHT22;11222;50.872;4.312;2023-03-12T14:45:59;13.10;99.90
22112;DHT22;11222;50.872;4.312;2023-03-12T14:48:36;13.20;99.90
22112;DHT22;11222;50.872;4.312;2023-03-12T14:51:03;13.30;99.90
22112;DHT22;11222;50.872;4.312;2023-03-12T14:53:33;13.20;99.90
22112;DHT22;11222;50.872;4.312;2023-03-12T14:56:35;13.20;99.90
22112;DHT22;11222;50.872;4.312;2023-03-12T14:59:19;13.30;99.90
22112;DHT22;11222;50.872;4.312;2023-03-12T15:01:45;13.30;99.90
22112;DHT22;11222;50.872;4.312;2023-03-12T15:04:20;13.20;99.90
22112;DHT22;11222;50.872;4.312;2023-03-12T15:06:48;13.20;99.90
22112;DHT22;11222;50.872;4.312;2023-03-12T15:09:22;13.30;99.90
22112;DHT22;11222;50.872;4.312;2023-03-12T15:12:18;13.20;99.90
22112;DHT22;11222;50.872;4.312;2023-03-12T15:14:44;13.10;99.90
22112;DHT22;11222;50.872;4.312;2023-03-12T15:17:18;13.10;99.90
22112;DHT22;11222;50.872;4.312;2023-03-12T15:19:45;13.00;99.90
22112;DHT22;11222;50.872;4.312;2023-03-12T15:22:18;13.00;99.90
22112;DHT22;11222;50.872;4.312;2023-03-12T15:24:45;12.90;99.90
22112;DHT22;11222;50.872;4.312;2023-03-12T15:27:30;12.80;99.90
22112;DHT22;11222;50.872;4.312;2023-03-12T15:29:58;12.80;99.90
22112;DHT22;11222;50.872;4.312;2023-03-12T15:32:25;12.80;99.90
22112;DHT22;11222;50.872;4.312;2023-03-12T15:34:52;12.90;99.90
22112;DHT22;11222;50.872;4.312;2023-03-12T15:37:30;12.90;99.90
22112;DHT22;11222;50.872;4.312;2023-03-12T15:40:01;12.80;99.90
22112;DHT22;11222;50.872;4.312;2023-03-12T15:42:39;12.70;99.90
22112;DHT22;11222;50.872;4.312;2023-03-12T15:45:19;12.80;99.90
22112;DHT22;11222;50.872;4.312;2023-03-12T15:47:46;12.70;99.90
22112;DHT22;11222;50.872;4.312;2023-03-12T15:50:39;12.80;99.90
22112;DHT22;11222;50.872;4.312;2023-03-12T15:58:38;12.70;99.90
22112;DHT22;11222;50.872;4.312;2023-03-12T16:01:17;12.70;99.90
22112;DHT22;11222;50.872;4.312;2023-03-12T16:03:48;12.70;99.90
22112;DHT22;11222;50.872;4.312;2023-03-12T16:06:18;12.70;99.90
22112;DHT22;11222;50.872;4.312;2023-03-12T16:08:52;12.70;99.90
22112;DHT22;11222;50.872;4.312;2023-03-12T16:11:22;12.80;99.90
22112;DHT22;11222;50.872;4.312;2023-03-12T16:13:51;12.80;99.90
22112;DHT22;11222;50.872;4.312;2023-03-12T16:16:18;12.80;99.90
22112;DHT22;11222;50.872;4.312;2023-03-12T16:18:44;12.70;99.90
22112;DHT22;11222;50.872;4.312;2023-03-12T16:21:10;12.70;99.90
22112;DHT22;11222;50.872;4.312;2023-03-12T16:23:36;12.60;99.90
22112;DHT22;11222;50.872;4.312;2023-03-12T16:26:03;12.60;99.90
22112;DHT22;11222;50.872;4.312;2023-03-12T16:28:30;12.50;99.90
22112;DHT22;11222;50.872;4.312;2023-03-12T16:30:57;12.50;99.90
22112;DHT22;11222;50.872;4.312;2023-03-12T16:33:24;12.50;99.90
22112;DHT22;11222;50.872;4.312;2023-03-12T16:35:50;12.40;99.90
22112;DHT22;11222;50.872;4.312;2023-03-12T16:38:18;12.50;99.90
22112;DHT22;11222;50.872;4.312;2023-03-12T16:40:48;12.50;99.90
22112;DHT22;11222;50.872;4.312;2023-03-12T16:43:21;12.60;99.90
22112;DHT22;11222;50.872;4.312;2023-03-12T16:45:49;12.50;99.90
22112;DHT22;11222;50.872;4.312;2023-03-12T16:48:19;12.30;99.90
22112;DHT22;11222;50.872;4.312;2023-03-12T16:50:47;12.30;99.90
22112;DHT22;11222;50.872;4.312;2023-03-12T16:53:13;12.30;99.90
22112;DHT22;11222;50.872;4.312;2023-03-12T16:58:16;12.30;99.90
22112;DHT22;11222;50.872;4.312;2023-03-12T17:00:43;12.20;99.90
22112;DHT22;11222;50.872;4.312;2023-03-12T17:05:50;12.10;99.90
22112;DHT22;11222;50.872;4.312;2023-03-12T17:08:16;12.10;99.90
22112;DHT22;11222;50.872;4.312;2023-03-12T17:10:41;12.10;99.90
22112;DHT22;11222;50.872;4.312;2023-03-12T17:13:19;12.00;99.90
22112;DHT22;11222;50.872;4.312;2023-03-12T17:15:46;12.00;99.90
22112;DHT22;11222;50.872;4.312;2023-03-12T17:18:11;12.00;99.90
22112;DHT22;11222;50.872;4.312;2023-03-12T17:20:38;12.00;99.90
22112;DHT22;11222;50.872;4.312;2023-03-12T17:23:04;12.00;99.90
22112;DHT22;11222;50.872;4.312;2023-03-12T17:25:32;12.00;99.90
22112;DHT22;11222;50.872;4.312;2023-03-12T17:27:59;12.10;99.90
22112;DHT22;11222;50.872;4.312;2023-03-12T17:30:27;12.10;99.90
22112;DHT22;11222;50.872;4.312;2023-03-12T17:33:03;12.10;99.90
22112;DHT22;11222;50.872;4.312;2023-03-12T17:35:29;12.10;99.90
22112;DHT22;11222;50.872;4.312;2023-03-12T17:37:55;12.10;99.90
22112;DHT22;11222;50.872;4.312;2023-03-12T17:40:20;12.10;99.90
22112;DHT22;11222;50.872;4.312;2023-03-12T17:42:46;12.20;99.90
22112;DHT22;11222;50.872;4.312;2023-03-12T17:45:12;12.20;99.90
22112;DHT22;11222;50.872;4.312;2023-03-12T17:47:38;12.20;99.90
22112;DHT22;11222;50.872;4.312;2023-03-12T17:50:05;12.20;99.90
22112;DHT22;11222;50.872;4.312;2023-03-12T17:52:30;12.10;99.90
22112;DHT22;11222;50.872;4.312;2023-03-12T17:54:56;12.10;99.90